Time;durP1;ratioP1;P1;durP2;ratioP2;P2;SDS_P1;SDS_P2;PMS_P1;PMS_P2;Temp;Humidity;BMP_temperature;BMP_pressure;BME280_temperature;BME280_humidity;BME280_pressure;Samples;Min_cycle;Max_cycle;Signal;HPM_P1;HPM_P2
2023/04/23 00:00:41;;;;;;;42.22;24.95;;;;;;;;;;4892920;29;20184;-68
2023/04/23 00:03:08;;;;;;;42.20;25.02;;;8.50;99.90;;;;;;4894799;29;20045;-68
2023/04/23 00:05:36;;;;;;;40.67;22.23;;;;;;;;;;4871121;29;20047;-68
2023/04/23 00:08:02;;;;;;;38.83;23.95;;;;;;;;;;4899967;29;20036;-68
2023/04/23 00:10:28;;;;;;;45.13;24.17;;;;;;;;;;4900497;29;20048;-68
2023/04/23 00:12:55;;;;;;;39.58;24.17;;;;;;;;;;4916042;29;20036;-68
2023/04/23 00:15:21;;;;;;;41.13;23.13;;;;;;;;;;4894488;29;20453;-68
2023/04/23 00:17:47;;;;;;;39.55;22.65;;;;;;;;;;4884519;29;20092;-69
2023/04/23 00:20:15;;;;;;;37.78;22.80;;;8.40;99.90;;;;;;4900362;29;20092;-67
2023/04/23 00:22:42;;;;;;;38.70;21.13;;;8.40;99.90;;;;;;4916751;29;20036;-68
2023/04/23 00:25:09;;;;;;;42.58;23.30;;;9.60;99.90;;;;;;4915759;29;20471;-68
2023/04/23 00:27:35;;;;;;;41.30;22.98;;;;;;;;;;4916947;29;20086;-68
2023/04/23 00:30:02;;;;;;;39.42;22.25;;;;;;;;;;4917068;29;20401;-68
2023/04/23 00:32:28;;;;;;;41.95;23.10;;;;;;;;;;4890031;29;20068;-68
2023/04/23 00:34:55;;;;;;;42.08;24.15;;;;;;;;;;4884117;29;20127;-68
2023/04/23 00:37:21;;;;;;;42.95;23.73;;;;;;;;;;4867502;29;20056;-68
2023/04/23 00:39:48;;;;;;;40.42;24.25;;;;;;;;;;4897172;29;20041;-68
2023/04/23 00:42:16;;;;;;;51.15;25.35;;;;;;;;;;4884894;29;20123;-68
2023/04/23 00:44:42;;;;;;;45.05;25.05;;;;;;;;;;4882705;29;20040;-68
2023/04/23 00:47:09;;;;;;;44.08;24.95;;;;;;;;;;4867301;29;20095;-67
2023/04/23 00:49:36;;;;;;;43.55;25.38;;;;;;;;;;4882748;29;20051;-67
2023/04/23 00:52:05;;;;;;;44.45;24.42;;;8.40;99.90;;;;;;4869376;29;20051;-67
2023/04/23 00:54:31;;;;;;;47.92;26.05;;;;;;;;;;4907890;29;20044;-68
2023/04/23 00:56:58;;;;;;;42.15;25.30;;;;;;;;;;4882936;29;20087;-68
2023/04/23 00:59:28;;;;;;;45.67;25.75;;;8.30;99.90;;;;;;4897009;29;20044;-69
2023/04/23 01:01:54;;;;;;;51.58;24.08;;;;;;;;;;4909741;29;20044;-70
2023/04/23 01:04:21;;;;;;;45.90;25.17;;;;;;;;;;4908246;29;20044;-68
2023/04/23 01:06:47;;;;;;;47.33;25.52;;;;;;;;;;4884982;29;20044;-67
2023/04/23 01:09:14;;;;;;;47.08;24.10;;;;;;;;;;4915450;29;20040;-67
2023/04/23 01:11:42;;;;;;;47.53;25.35;;;;;;;;;;4882618;29;20037;-67
2023/04/23 01:14:09;;;;;;;45.13;25.08;;;8.40;99.90;;;;;;4899194;29;20092;-68
2023/04/23 01:16:37;;;;;;;49.22;26.42;;;;;;;;;;4891076;29;20069;-68
2023/04/23 01:19:07;;;;;;;53.80;26.83;;;;;;;;;;4885464;29;20048;-68
2023/04/23 01:21:35;;;;;;;49.38;25.48;;;8.50;99.90;;;;;;4883379;29;20036;-68
2023/04/23 01:24:01;;;;;;;48.90;25.60;;;;;;;;;;4897452;29;20075;-68
2023/04/23 01:26:27;;;;;;;52.45;29.10;;;;;;;;;;4915849;29;20398;-68
2023/04/23 01:28:53;;;;;;;50.13;26.85;;;;;;;;;;4897649;29;20044;-68
2023/04/23 01:31:19;;;;;;;53.42;27.45;;;7.60;99.90;;;;;;4898727;29;20047;-68
2023/04/23 01:33:46;;;;;;;54.20;27.83;;;;;;;;;;4876908;29;20055;-68
2023/04/23 01:36:12;;;;;;;46.72;26.15;;;;;;;;;;4866778;29;20044;-67
2023/04/23 01:38:38;;;;;;;50.25;27.98;;;;;;;;;;4904127;29;20083;-67
2023/04/23 01:41:04;;;;;;;47.80;26.50;;;;;;;;;;4915482;29;20044;-67
2023/04/23 01:43:31;;;;;;;51.50;27.23;;;;;;;;;;4882245;29;20071;-67
2023/04/23 01:45:58;;;;;;;51.85;27.83;;;;;;;;;;4897328;29;20048;-67
2023/04/23 01:48:24;;;;;;;53.88;27.13;;;;;;;;;;4879558;29;20092;-68
2023/04/23 01:50:51;;;;;;;52.65;27.70;;;;;;;;;;4889150;29;20135;-68
2023/04/23 01:53:17;;;;;;;53.22;27.67;;;8.20;99.90;;;;;;4898861;29;20052;-68
2023/04/23 01:55:46;;;;;;;54.90;27.98;;;8.10;99.90;;;;;;4883663;29;20375;-68
2023/04/23 01:58:12;;;;;;;49.58;26.25;;;;;;;;;;4866409;29;20044;-68
2023/04/23 02:00:38;;;;;;;51.42;27.25;;;;;;;;;;4906013;29;20054;-68
2023/04/23 02:03:04;;;;;;;51.22;27.55;;;;;;;;;;4865992;29;20040;-68
2023/04/23 02:05:33;;;;;;;55.10;28.55;;;;;;;;;;4882433;29;20074;-68
2023/04/23 02:07:59;;;;;;;55.60;28.77;;;;;;;;;;4881734;29;20044;-68
2023/04/23 02:10:25;;;;;;;54.75;29.23;;;;;;;;;;4889496;29;20044;-68
2023/04/23 02:12:52;;;;;;;59.88;31.10;;;;;;;;;;4882709;29;20040;-68
2023/04/23 02:15:18;;;;;;;61.80;30.02;;;;;;;;;;4886852;29;20052;-68
2023/04/23 02:17:45;;;;;;;60.22;29.50;;;;;;;;;;4897918;29;20056;-68
2023/04/23 02:20:11;;;;;;;57.75;29.85;;;;;;;;;;4890416;29;20100;-68
2023/04/23 02:22:41;;;;;;;64.47;32.40;;;7.90;99.90;;;;;;4898409;29;20040;-68
2023/04/23 02:25:07;;;;;;;63.17;31.40;;;;;;;;;;4884312;29;20092;-69
2023/04/23 02:27:34;;;;;;;63.58;33.00;;;;;;;;;;4881646;29;20058;-69
2023/04/23 02:30:00;;;;;;;63.90;32.15;;;;;;;;;;4882434;29;20040;-69
2023/04/23 02:32:26;;;;;;;61.70;32.40;;;;;;;;;;4868593;29;20385;-69
2023/04/23 02:34:53;;;;;;;66.82;32.65;;;;;;;;;;4866739;29;20051;-69
2023/04/23 02:37:20;;;;;;;69.40;32.70;;;;;;;;;;4890616;29;20528;-69
2023/04/23 02:39:46;;;;;;;69.53;33.35;;;;;;;;;;4898052;29;20434;-69
2023/04/23 02:42:12;;;;;;;90.95;34.83;;;7.90;99.90;;;;;;4885146;29;20556;-69
2023/04/23 02:44:38;;;;;;;123.28;33.85;;;;;;;;;;4897957;29;20041;-68
2023/04/23 02:47:04;;;;;;;144.45;35.08;;;;;;;;;;4892189;29;20488;-68
2023/04/23 02:49:30;;;;;;;134.02;34.97;;;;;;;;;;4879797;29;20055;-68
2023/04/23 02:51:56;;;;;;;171.05;35.35;;;;;;;;;;4898434;29;20044;-68
2023/04/23 02:54:22;;;;;;;207.40;35.15;;;;;;;;;;4882518;29;20496;-68
2023/04/23 02:56:48;;;;;;;98.22;34.78;;;;;;;;;;4898069;29;20075;-68
2023/04/23 02:59:15;;;;;;;140.38;36.00;;;;;;;;;;4892813;29;20079;-68
2023/04/23 03:01:41;;;;;;;82.43;35.00;;;;;;;;;;4880219;29;20525;-68
2023/04/23 03:04:07;;;;;;;127.95;37.70;;;;;;;;;;4914745;29;20173;-68
2023/04/23 03:06:34;;;;;;;89.82;38.53;;;;;;;;;;4896618;29;20119;-68
2023/04/23 03:09:00;;;;;;;169.75;38.20;;;;;;;;;;4881517;29;20626;-69
2023/04/23 03:11:26;;;;;;;161.80;39.65;;;;;;;;;;4889070;29;20044;-69
2023/04/23 03:13:52;;;;;;;105.95;40.20;;;;;;;;;;4881922;29;20048;-69
2023/04/23 03:16:19;;;;;;;109.25;39.60;;;;;;;;;;4886481;29;20056;-69
2023/04/23 03:18:45;;;;;;;145.63;41.97;;;;;;;;;;4872917;29;20049;-70
2023/04/23 03:21:11;;;;;;;106.78;40.90;;;;;;;;;;4870908;29;20052;-69
2023/04/23 03:23:37;;;;;;;118.82;40.50;;;;;;;;;;4895411;29;20052;-69
2023/04/23 03:26:04;;;;;;;135.68;40.53;;;;;;;;;;4880877;29;20120;-68
2023/04/23 03:28:30;;;;;;;103.88;39.90;;;;;;;;;;4880586;29;20088;-68
2023/04/23 03:30:56;;;;;;;101.97;41.88;;;;;;;;;;4887304;29;20084;-68
2023/04/23 03:33:23;;;;;;;131.15;44.08;;;;;;;;;;4887998;29;20045;-68
2023/04/23 03:35:49;;;;;;;102.50;43.58;;;;;;;;;;4868808;29;20040;-68
2023/04/23 03:38:15;;;;;;;117.57;44.60;;;;;;;;;;4884082;29;20040;-68
2023/04/23 03:40:41;;;;;;;102.97;44.53;;;;;;;;;;4886590;29;20104;-68
2023/04/23 03:43:07;;;;;;;98.50;44.35;;;;;;;;;;4917854;29;20052;-68
2023/04/23 03:45:33;;;;;;;102.28;46.05;;;;;;;;;;4917867;29;20496;-68
2023/04/23 03:47:59;;;;;;;108.50;46.15;;;;;;;;;;4901087;29;20036;-68
2023/04/23 03:50:25;;;;;;;104.90;47.38;;;;;;;;;;4897255;29;20131;-68
2023/04/23 03:52:51;;;;;;;103.72;46.72;;;;;;;;;;4884819;29;20052;-68
2023/04/23 03:55:19;;;;;;;103.13;45.65;;;;;;;;;;4886061;29;20052;-68
2023/04/23 03:57:45;;;;;;;117.75;50.75;;;;;;;;;;4900349;29;20055;-68
2023/04/23 04:00:11;;;;;;;109.43;48.63;;;8.20;99.90;;;;;;4891382;29;20185;-68
2023/04/23 04:02:38;;;;;;;108.70;46.97;;;;;;;;;;4883837;29;20052;-68
2023/04/23 04:05:05;;;;;;;114.75;49.92;;;8.20;99.90;;;;;;4879743;29;20067;-69
2023/04/23 04:07:32;;;;;;;117.13;50.67;;;;;;;;;;4882394;29;20147;-68
2023/04/23 04:09:58;;;;;;;124.28;50.50;;;;;;;;;;4881136;29;20477;-68
2023/04/23 04:12:24;;;;;;;112.07;48.40;;;;;;;;;;4884764;29;20044;-68
2023/04/23 04:14:50;;;;;;;113.72;49.42;;;;;;;;;;4900598;29;20457;-68
2023/04/23 04:17:17;;;;;;;122.43;50.42;;;;;;;;;;4898598;29;20056;-68
2023/04/23 04:19:43;;;;;;;116.90;50.83;;;;;;;;;;4898931;29;20047;-68
2023/04/23 04:22:09;;;;;;;122.13;51.92;;;;;;;;;;4887621;29;20072;-68
2023/04/23 04:24:35;;;;;;;119.18;51.78;;;;;;;;;;4883135;29;20047;-68
2023/04/23 04:27:02;;;;;;;122.93;51.50;;;;;;;;;;4883563;29;20056;-68
2023/04/23 04:29:28;;;;;;;126.30;51.42;;;;;;;;;;4886054;29;20099;-69
2023/04/23 04:31:55;;;;;;;117.32;50.88;;;8.30;99.90;;;;;;4882069;29;20485;-69
2023/04/23 04:34:22;;;;;;;126.70;51.92;;;;;;;;;;4890431;29;20044;-69
2023/04/23 04:36:48;;;;;;;121.53;50.83;;;;;;;;;;4883841;29;20109;-69
2023/04/23 04:39:14;;;;;;;126.57;52.13;;;;;;;;;;4867699;29;20048;-69
2023/04/23 04:41:41;;;;;;;103.78;46.33;;;;;;;;;;4882911;29;20048;-69
2023/04/23 04:44:08;;;;;;;126.88;52.65;;;;;;;;;;4883890;29;20039;-68
2023/04/23 04:46:39;;;;;;;132.48;52.97;;;8.10;99.90;;;;;;4883933;29;20044;-68
2023/04/23 04:49:11;;;;;;;118.35;51.13;;;;;;;;;;4882790;29;20040;-68
2023/04/23 04:51:37;;;;;;;;;;;;;;;;;;4883247;29;20048;-69
2023/04/23 04:54:03;;;;;;;124.60;49.47;;;;;;;;;;4882723;29;19986;-69
2023/04/23 04:56:30;;;;;;;115.72;48.47;;;;;;;;;;4893245;29;20047;-69
2023/04/23 04:58:56;;;;;;;132.48;51.88;;;;;;;;;;4899559;29;20040;-68
2023/04/23 05:01:23;;;;;;;128.63;52.15;;;;;;;;;;4895606;29;20435;-68
2023/04/23 05:03:49;;;;;;;127.53;50.55;;;;;;;;;;4909594;29;20080;-68
2023/04/23 05:06:16;;;;;;;114.57;50.17;;;;;;;;;;4883685;29;20040;-68
2023/04/23 05:08:46;;;;;;;113.63;48.60;;;;;;;;;;4884611;29;20374;-68
2023/04/23 05:11:13;;;;;;;118.20;48.58;;;;;;;;;;4897693;29;20056;-68
2023/04/23 05:13:40;;;;;;;113.30;48.03;;;;;;;;;;4915963;29;20119;-69
2023/04/23 05:16:07;;;;;;;116.93;48.00;;;;;;;;;;4874772;29;20064;-69
2023/04/23 05:18:33;;;;;;;117.93;48.92;;;;;;;;;;4881434;29;20045;-69
2023/04/23 05:20:59;;;;;;;113.72;49.38;;;8.70;99.90;;;;;;4866737;29;20546;-69
2023/04/23 05:23:25;;;;;;;120.93;49.17;;;;;;;;;;4893750;29;20051;-69
2023/04/23 05:25:54;;;;;;;112.97;47.90;;;;;;;;;;4892264;29;20044;-69
2023/04/23 05:28:20;;;;;;;111.35;48.05;;;;;;;;;;4909554;29;20043;-69
2023/04/23 05:30:47;;;;;;;114.97;50.08;;;;;;;;;;4889509;29;20040;-69
2023/04/23 05:33:13;;;;;;;117.97;49.30;;;;;;;;;;4880376;29;20052;-69
2023/04/23 05:35:39;;;;;;;108.53;48.05;;;;;;;;;;4906579;29;20037;-69
2023/04/23 05:38:05;;;;;;;114.03;49.08;;;;;;;;;;4894241;29;20036;-68
2023/04/23 05:40:31;;;;;;;106.97;47.17;;;;;;;;;;4916217;29;20377;-68
2023/04/23 05:42:58;;;;;;;102.43;46.88;;;;;;;;;;4915923;29;20042;-68
2023/04/23 05:45:24;;;;;;;113.88;48.55;;;;;;;;;;4897602;29;20044;-69
2023/04/23 05:47:50;;;;;;;105.40;46.10;;;;;;;;;;4881269;29;20044;-69
2023/04/23 05:50:16;;;;;;;104.40;46.70;;;;;;;;;;4893128;29;20120;-68
2023/04/23 05:52:43;;;;;;;100.93;45.88;;;;;;;;;;4900860;29;20140;-68
2023/04/23 05:55:09;;;;;;;94.28;42.15;;;;;;;;;;4882877;29;20051;-68
2023/04/23 05:57:38;;;;;;;98.78;44.67;;;;;;;;;;4883099;29;20052;-68
2023/04/23 06:00:08;;;;;;;96.88;44.45;;;9.30;99.90;;;;;;4881622;29;20055;-68
2023/04/23 06:02:34;;;;;;;95.28;43.13;;;;;;;;;;4899442;29;20421;-68
2023/04/23 06:05:00;;;;;;;102.20;45.40;;;;;;;;;;4906517;29;20500;-67
2023/04/23 06:07:27;;;;;;;89.47;42.97;;;;;;;;;;4866543;29;20045;-69
2023/04/23 06:09:53;;;;;;;93.72;42.65;;;;;;;;;;4900673;29;20044;-69
2023/04/23 06:12:19;;;;;;;97.72;45.03;;;;;;;;;;4866523;29;20063;-69
2023/04/23 06:14:45;;;;;;;92.13;44.28;;;;;;;;;;4888346;29;20047;-68
2023/04/23 06:17:11;;;;;;;90.28;43.05;;;;;;;;;;4870233;29;20583;-68
2023/04/23 06:19:37;;;;;;;84.10;42.60;;;;;;;;;;4870483;29;20098;-68
2023/04/23 06:22:03;;;;;;;84.85;42.13;;;;;;;;;;4905386;29;20040;-69
2023/04/23 06:24:29;;;;;;;84.15;40.13;;;;;;;;;;4902233;29;20044;-68
2023/04/23 06:26:56;;;;;;;83.53;40.53;;;;;;;;;;4901114;29;20393;-68
2023/04/23 06:29:22;;;;;;;79.50;40.13;;;;;;;;;;4907768;29;20509;-69
2023/04/23 06:31:48;;;;;;;82.40;41.15;;;;;;;;;;4907438;29;20041;-69
2023/04/23 06:34:14;;;;;;;80.05;40.30;;;;;;;;;;4891183;29;20036;-68
2023/04/23 06:36:42;;;;;;;80.68;40.83;;;;;;;;;;4896127;29;20493;-67
2023/04/23 06:39:09;;;;;;;81.15;39.80;;;;;;;;;;4889538;29;20051;-67
2023/04/23 06:41:35;;;;;;;78.63;40.53;;;;;;;;;;4892398;29;20135;-68
2023/04/23 06:44:01;;;;;;;76.47;37.65;;;;;;;;;;4889168;29;20104;-67
2023/04/23 06:46:27;;;;;;;77.57;39.63;;;;;;;;;;4897971;29;20036;-68
2023/04/23 06:48:53;;;;;;;74.32;38.05;;;;;;;;;;4883601;29;20048;-68
2023/04/23 06:51:19;;;;;;;74.68;38.60;;;;;;;;;;4899589;29;20501;-68
2023/04/23 06:53:46;;;;;;;73.00;38.47;;;;;;;;;;4883123;29;20044;-67
2023/04/23 06:56:12;;;;;;;73.70;35.97;;;;;;;;;;4892513;29;20081;-68
2023/04/23 06:58:39;;;;;;;77.57;38.05;;;;;;;;;;4895303;29;20066;-68
2023/04/23 07:01:06;;;;;;;69.72;38.70;;;;;;;;;;4890960;29;20047;-67
2023/04/23 07:03:32;;;;;;;79.25;38.50;;;;;;;;;;4890697;29;20095;-67
2023/04/23 07:05:58;;;;;;;73.80;39.40;;;;;;;;;;4866467;29;20032;-67
2023/04/23 07:08:25;;;;;;;71.38;37.55;;;;;;;;;;4853396;29;20043;-68
2023/04/23 07:10:52;;;;;;;73.47;38.17;;;;;;;;;;4894276;29;20052;-68
2023/04/23 07:13:18;;;;;;;73.50;37.97;;;;;;;;;;4898794;29;20056;-68
2023/04/23 07:15:45;;;;;;;79.03;39.17;;;;;;;;;;4896979;29;20053;-68
2023/04/23 07:18:11;;;;;;;73.15;39.33;;;;;;;;;;4895023;29;20048;-68
2023/04/23 07:20:37;;;;;;;72.28;37.55;;;;;;;;;;4873385;29;20374;-68
2023/04/23 07:23:03;;;;;;;81.38;40.42;;;;;;;;;;4868968;29;20044;-68
2023/04/23 07:25:32;;;;;;;72.35;38.70;;;;;;;;;;4894883;29;20101;-68
2023/04/23 07:27:58;;;;;;;72.60;38.08;;;;;;;;;;4884384;29;20040;-68
2023/04/23 07:30:25;;;;;;;74.47;39.65;;;10.10;99.90;;;;;;4884325;29;20059;-68
2023/04/23 07:32:51;;;;;;;72.63;38.97;;;;;;;;;;4901440;29;20367;-68
2023/04/23 07:35:17;;;;;;;81.25;39.38;;;11.30;99.90;;;;;;4884237;29;20097;-69
2023/04/23 07:37:43;;;;;;;79.15;38.80;;;;;;;;;;4901007;29;20084;-68
2023/04/23 07:40:09;;;;;;;63.28;36.10;;;9.70;99.90;;;;;;4884213;29;20051;-68
2023/04/23 07:42:35;;;;;;;64.50;34.83;;;;;;;;;;4884005;29;20077;-69
2023/04/23 07:45:02;;;;;;;68.10;36.70;;;;;;;;;;4887013;29;20095;-68
2023/04/23 07:47:28;;;;;;;64.05;33.70;;;;;;;;;;4860110;29;20039;-69
2023/04/23 07:49:54;;;;;;;65.93;35.67;;;;;;;;;;4868419;29;20445;-68
2023/04/23 07:52:20;;;;;;;62.97;35.65;;;;;;;;;;4913625;29;20032;-69
2023/04/23 07:54:46;;;;;;;60.42;32.45;;;;;;;;;;4906506;29;20486;-68
2023/04/23 07:57:12;;;;;;;60.53;34.28;;;;;;;;;;4886242;29;20040;-68
2023/04/23 07:59:38;;;;;;;63.22;33.17;;;;;;;;;;4872999;29;20119;-68
2023/04/23 08:02:05;;;;;;;58.13;32.13;;;;;;;;;;4897973;29;20040;-67
2023/04/23 08:04:31;;;;;;;55.67;31.85;;;;;;;;;;4900514;29;20051;-68
2023/04/23 08:06:57;;;;;;;55.00;33.00;;;;;;;;;;4912975;29;20042;-67
2023/04/23 08:09:23;;;;;;;53.95;31.40;;;;;;;;;;4917277;29;20044;-67
2023/04/23 08:11:49;;;;;;;55.42;30.83;;;;;;;;;;4898513;29;20071;-67
2023/04/23 08:14:16;;;;;;;51.40;30.35;;;;;;;;;;4895154;29;20385;-67
2023/04/23 08:16:42;;;;;;;51.42;30.92;;;;;;;;;;4884336;29;20071;-67
2023/04/23 08:19:08;;;;;;;56.17;30.75;;;;;;;;;;4907429;29;20414;-67
2023/04/23 08:21:35;;;;;;;51.03;29.25;;;;;;;;;;4881102;29;20127;-67
2023/04/23 08:24:01;;;;;;;44.15;27.98;;;;;;;;;;4888527;29;20115;-68
2023/04/23 08:26:28;;;;;;;49.80;28.23;;;;;;;;;;4903126;29;20037;-67
2023/04/23 08:28:54;;;;;;;52.58;28.95;;;;;;;;;;4883258;29;20048;-67
2023/04/23 08:31:20;;;;;;;47.47;28.30;;;;;;;;;;4886458;29;20040;-68
2023/04/23 08:33:46;;;;;;;46.05;27.88;;;;;;;;;;4900211;29;20048;-67
2023/04/23 08:36:14;;;;;;;46.78;27.30;;;;;;;;;;4869773;29;20048;-67
2023/04/23 08:38:40;;;;;;;40.85;25.33;;;;;;;;;;4894377;29;20192;-68
2023/04/23 08:41:09;;;;;;;46.88;26.20;;;;;;;;;;4876650;29;20043;-67
2023/04/23 08:43:53;;;;;;;44.78;26.55;;;12.50;99.90;;;;;;4891569;29;20128;-68
2023/04/23 08:46:19;;;;;;;42.05;24.90;;;;;;;;;;4906444;29;20039;-68
2023/04/23 08:48:46;;;;;;;37.25;23.95;;;;;;;;;;4910278;29;20392;-67
2023/04/23 08:51:17;;;;;;;39.03;24.52;;;12.60;99.90;;;;;;4876456;29;20045;-68
2023/04/23 08:53:45;;;;;;;37.28;23.05;;;12.70;99.90;;;;;;4910596;29;20141;-67
2023/04/23 08:56:13;;;;;;;39.15;22.77;;;12.60;99.90;;;;;;4890255;29;20040;-67
2023/04/23 08:58:40;;;;;;;35.05;21.85;;;12.90;99.90;;;;;;4892302;29;20453;-67
2023/04/23 09:01:07;;;;;;;35.33;23.23;;;;;;;;;;4907119;29;20110;-68
2023/04/23 09:03:33;;;;;;;32.90;20.88;;;;;;;;;;4877752;29;20040;-67
2023/04/23 09:05:59;;;;;;;39.55;22.08;;;;;;;;;;4907508;29;20033;-68
2023/04/23 09:08:25;;;;;;;34.35;20.77;;;;;;;;;;4892733;29;20496;-68
2023/04/23 09:10:52;;;;;;;35.30;20.00;;;;;;;;;;4907058;29;20378;-67
2023/04/23 09:13:18;;;;;;;34.00;19.67;;;;;;;;;;4910724;29;20039;-68
2023/04/23 09:15:44;;;;;;;33.90;19.17;;;;;;;;;;4891896;29;20068;-68
2023/04/23 09:18:10;;;;;;;26.40;15.25;;;;;;;;;;4890515;29;20067;-68
2023/04/23 09:20:37;;;;;;;26.48;15.05;;;;;;;;;;4877683;29;20102;-68
2023/04/23 09:23:07;;;;;;;20.80;14.02;;;;;;;;;;4875416;29;20044;-68
2023/04/23 09:25:33;;;;;;;30.02;15.15;;;14.50;99.90;;;;;;4892479;29;20063;-69
2023/04/23 09:28:00;;;;;;;24.73;13.60;;;;;;;;;;4891807;29;20478;-72
2023/04/23 09:30:26;;;;;;;23.15;13.18;;;;;;;;;;4880935;29;20048;-70
2023/04/23 09:32:53;;;;;;;22.65;14.43;;;;;;;;;;4879560;29;20543;-68
2023/04/23 09:35:19;;;;;;;21.48;14.05;;;14.30;99.90;;;;;;4889170;29;20052;-68
2023/04/23 09:37:47;;;;;;;21.25;12.65;;;14.00;99.90;;;;;;4879006;29;20043;-68
2023/04/23 09:40:19;;;;;;;24.50;13.75;;;14.00;99.90;;;;;;4865293;29;20040;-68
2023/04/23 09:42:49;;;;;;;27.20;14.50;;;14.80;99.90;;;;;;4893844;29;20132;-68
2023/04/23 09:45:16;;;;;;;22.63;13.90;;;;;;;;;;4894308;29;20071;-68
2023/04/23 09:47:50;;;;;;;23.45;13.85;;;14.00;99.90;;;;;;4883393;29;20507;-68
2023/04/23 09:50:16;;;;;;;21.90;12.85;;;;;;;;;;4886873;29;20123;-68
2023/04/23 09:52:42;;;;;;;24.98;13.43;;;;;;;;;;4903571;29;20044;-68
2023/04/23 09:55:09;;;;;;;21.25;11.25;;;;;;;;;;4905650;29;20041;-68
2023/04/23 09:57:45;;;;;;;20.17;10.05;;;14.70;99.90;;;;;;4889197;29;20047;-68
2023/04/23 10:00:17;;;;;;;20.98;10.73;;;14.70;99.90;;;;;;4906856;29;20059;-68
2023/04/23 10:02:48;;;;;;;18.70;9.88;;;14.90;99.90;;;;;;4889460;29;20048;-69
2023/04/23 10:05:18;;;;;;;19.45;11.52;;;;;;;;;;4893340;29;20053;-68
2023/04/23 10:07:45;;;;;;;20.15;12.10;;;;;;;;;;4893941;29;20122;-68
2023/04/23 10:10:20;;;;;;;20.67;11.40;;;;;;;;;;4890610;29;20517;-68
2023/04/23 10:12:46;;;;;;;22.10;11.98;;;;;;;;;;4872876;29;20037;-69
2023/04/23 10:15:13;;;;;;;17.08;9.10;;;15.30;99.90;;;;;;4884255;29;20041;-69
2023/04/23 10:17:40;;;;;;;14.88;7.68;;;15.40;99.90;;;;;;4885742;29;20060;-69
2023/04/23 10:20:07;;;;;;;18.42;9.35;;;;;;;;;;4884664;29;20076;-69
2023/04/23 10:22:36;;;;;;;14.32;8.27;;;15.70;99.90;;;;;;4884925;29;20045;-69
2023/04/23 10:25:09;;;;;;;19.40;9.20;;;15.90;99.90;;;;;;4885290;29;20037;-69
2023/04/23 10:27:38;;;;;;;15.60;9.95;;;16.20;99.90;;;;;;4879827;29;20108;-69
2023/04/23 10:30:05;;;;;;;15.48;7.82;;;16.10;99.90;;;;;;4903622;29;20035;-69
2023/04/23 10:32:33;;;;;;;12.93;7.05;;;16.00;99.90;;;;;;4896468;29;20048;-70
2023/04/23 10:34:59;;;;;;;17.35;7.78;;;;;;;;;;4882535;29;20046;-75
2023/04/23 10:37:25;;;;;;;13.98;9.57;;;;;;;;;;4889658;29;20588;-69
2023/04/23 10:39:54;;;;;;;19.05;9.38;;;16.00;99.90;;;;;;4871319;29;20120;-69
2023/04/23 10:42:22;;;;;;;20.42;8.70;;;16.20;99.90;;;;;;4888836;29;20355;-69
2023/04/23 10:44:48;;;;;;;14.60;7.97;;;16.50;99.90;;;;;;4919612;29;20040;-70
2023/04/23 10:47:15;;;;;;;14.45;8.10;;;16.60;99.90;;;;;;4884132;29;20039;-69
2023/04/23 10:49:42;;;;;;;16.70;7.70;;;16.30;99.90;;;;;;4883872;29;20123;-69
2023/04/23 10:52:16;;;;;;;12.82;6.75;;;16.30;99.90;;;;;;4882617;29;20044;-69
2023/04/23 10:54:46;;;;;;;12.88;7.50;;;16.50;99.90;;;;;;4898393;29;20721;-69
2023/04/23 10:57:12;;;;;;;13.68;6.75;;;;;;;;;;4895605;29;20540;-70
2023/04/23 10:59:40;;;;;;;13.18;5.78;;;16.50;99.90;;;;;;4904580;29;20397;-69
2023/04/23 11:02:11;;;;;;;11.57;5.97;;;17.10;99.90;;;;;;4871265;29;20084;-69
2023/04/23 11:04:53;;;;;;;14.63;6.93;;;17.20;99.90;;;;;;4912367;29;20032;-69
2023/04/23 11:07:19;;;;;;;11.18;6.13;;;17.30;99.90;;;;;;4898086;29;20493;-69
2023/04/23 11:09:46;;;;;;;15.00;6.10;;;17.50;99.90;;;;;;4890363;29;20036;-69
2023/04/23 11:12:28;;;;;;;10.05;5.05;;;16.20;99.90;;;;;;4884659;29;20442;-69
2023/04/23 11:14:55;;;;;;;9.07;4.03;;;16.90;99.90;;;;;;4912639;29;20051;-69
2023/04/23 11:17:23;;;;;;;8.20;4.40;;;17.20;99.90;;;;;;4891909;29;20088;-74
2023/04/23 11:20:12;;;;;;;7.18;4.03;;;17.10;99.90;;;;;;4885495;29;20049;-75
2023/04/23 11:22:43;;;;;;;7.45;3.67;;;17.50;99.90;;;;;;4884293;29;20116;-73
2023/04/23 11:25:11;;;;;;;8.38;3.15;;;17.50;99.90;;;;;;4885882;29;20048;-69
2023/04/23 11:27:42;;;;;;;8.38;3.35;;;17.10;99.90;;;;;;4886003;29;20040;-69
2023/04/23 11:30:19;;;;;;;6.85;3.55;;;17.30;99.90;;;;;;4885169;29;20436;-69
2023/04/23 11:32:50;;;;;;;7.70;3.20;;;17.40;99.90;;;;;;4884429;29;20482;-69
2023/04/23 11:35:17;;;;;;;11.30;3.53;;;17.00;99.90;;;;;;4894869;29;20404;-69
2023/04/23 11:37:44;;;;;;;12.68;4.10;;;17.30;99.90;;;;;;4888591;29;20486;-69
2023/04/23 11:40:14;;;;;;;9.48;4.10;;;17.20;99.90;;;;;;4892421;29;20052;-69
2023/04/23 11:42:47;;;;;;;8.93;3.72;;;17.20;99.90;;;;;;4884062;29;20044;-69
2023/04/23 11:45:17;;;;;;;10.63;4.60;;;;;;;;;;4893736;29;20103;-69
2023/04/23 11:47:44;;;;;;;10.30;4.68;;;;;;;;;;4880795;29;20046;-69
2023/04/23 11:50:11;;;;;;;9.50;3.40;;;;;;;;;;4882011;29;20055;-69
2023/04/23 11:52:37;;;;;;;8.93;3.97;;;;;;;;;;4883402;29;20099;-69
2023/04/23 11:55:06;;;;;;;11.15;4.00;;;;;;;;;;4891857;29;20059;-72
2023/04/23 11:57:44;;;;;;;8.77;3.65;;;17.90;99.90;;;;;;4901698;29;20056;-67
2023/04/23 12:00:19;;;;;;;10.07;3.15;;;17.90;99.90;;;;;;4887623;29;20052;-68
2023/04/23 12:02:59;;;;;;;9.50;2.88;;;18.20;99.90;;;;;;4868155;29;20045;-68
2023/04/23 12:05:32;;;;;;;11.10;3.00;;;18.80;99.90;;;;;;4866095;29;20044;-68
2023/04/23 12:08:11;;;;;;;6.25;2.85;;;18.30;99.90;;;;;;4904247;29;20093;-68
2023/04/23 12:10:50;;;;;;;5.80;2.55;;;;;;;;;;4908992;29;20182;-68
2023/04/23 12:13:18;;;;;;;10.68;2.40;;;18.20;99.90;;;;;;4886866;29;20040;-68
2023/04/23 12:15:49;;;;;;;7.43;2.60;;;18.30;99.90;;;;;;4874508;29;20393;-68
2023/04/23 12:18:15;;;;;;;8.52;3.15;;;;;;;;;;4902477;29;20057;-68
2023/04/23 12:20:41;;;;;;;7.50;2.60;;;;;;;;;;4891253;29;20048;-68
2023/04/23 12:23:07;;;;;;;7.40;3.10;;;;;;;;;;4899187;29;20073;-68
2023/04/23 12:25:34;;;;;;;9.10;2.90;;;;;;;;;;4881601;29;20131;-68
2023/04/23 12:28:01;;;;;;;10.38;2.70;;;;;;;;;;4894132;29;20048;-68
2023/04/23 12:30:31;;;;;;;10.93;2.90;;;18.40;99.90;;;;;;4882100;29;20105;-68
2023/04/23 12:33:08;;;;;;;7.30;2.70;;;18.00;99.90;;;;;;4899967;29;20080;-67
2023/04/23 12:35:52;;;;;;;10.27;3.10;;;19.40;99.90;;;;;;4910134;29;20044;-69
2023/04/23 12:38:26;;;;;;;7.90;2.60;;;19.00;99.90;;;;;;4894217;29;20088;-68
2023/04/23 12:40:53;;;;;;;9.25;3.05;;;19.40;99.90;;;;;;4896635;29;20393;-69
2023/04/23 12:43:19;;;;;;;7.78;2.40;;;19.40;99.90;;;;;;4915520;29;20044;-69
2023/04/23 12:45:45;;;;;;;12.80;3.10;;;19.60;99.90;;;;;;4887324;29;20505;-69
2023/04/23 12:48:11;;;;;;;10.48;2.47;;;18.20;99.90;;;;;;4899585;29;20045;-73
2023/04/23 12:50:38;;;;;;;7.50;2.70;;;;;;;;;;4889550;29;20056;-69
2023/04/23 12:53:04;;;;;;;10.52;2.60;;;18.40;99.90;;;;;;4899725;29;20079;-69
2023/04/23 12:55:30;;;;;;;9.98;2.55;;;;;;;;;;4909148;29;20131;-70
2023/04/23 12:57:57;;;;;;;9.00;2.20;;;19.20;99.90;;;;;;4883286;29;20040;-70
2023/04/23 13:00:23;;;;;;;9.45;2.42;;;;;;;;;;4870901;29;20045;-69
2023/04/23 13:02:49;;;;;;;13.15;2.97;;;;;;;;;;4867163;29;20478;-68
2023/04/23 13:05:15;;;;;;;7.38;2.50;;;;;;;;;;4890519;29;20036;-68
2023/04/23 13:07:42;;;;;;;9.45;2.45;;;;;;;;;;4882634;29;20045;-68
2023/04/23 13:10:09;;;;;;;10.43;3.05;;;18.80;99.90;;;;;;4895838;29;20048;-68
2023/04/23 13:12:35;;;;;;;11.85;2.65;;;;;;;;;;4899209;29;20075;-68
2023/04/23 13:15:01;;;;;;;8.55;2.90;;;;;;;;;;4905784;29;20569;-68
2023/04/23 13:17:28;;;;;;;9.65;2.30;;;;;;;;;;4883660;29;20056;-68
2023/04/23 13:19:54;;;;;;;9.40;2.33;;;;;;;;;;4892262;29;20054;-68
2023/04/23 13:22:21;;;;;;;7.72;2.92;;;18.70;99.90;;;;;;4884691;29;20045;-68
2023/04/23 13:24:47;;;;;;;8.88;2.42;;;19.30;99.90;;;;;;4888962;29;20052;-68
2023/04/23 13:27:13;;;;;;;9.75;2.20;;;19.20;99.90;;;;;;4879306;29;20048;-68
2023/04/23 13:29:39;;;;;;;8.60;2.22;;;19.40;99.90;;;;;;4898988;29;20474;-68
2023/04/23 13:32:05;;;;;;;8.48;2.10;;;;;;;;;;4904178;29;20036;-70
2023/04/23 13:34:32;;;;;;;9.88;2.50;;;19.60;99.90;;;;;;4913311;29;20039;-69
2023/04/23 13:36:59;;;;;;;6.53;2.00;;;;;;;;;;4871437;29;20413;-69
2023/04/23 13:39:25;;;;;;;7.97;2.10;;;;;;;;;;4881108;29;20045;-69
2023/04/23 13:41:51;;;;;;;7.95;2.17;;;20.30;99.90;;;;;;4881923;29;20056;-69
2023/04/23 13:44:17;;;;;;;12.20;2.30;;;18.80;99.90;;;;;;4882342;29;20143;-69
2023/04/23 13:46:43;;;;;;;9.95;2.47;;;19.30;99.90;;;;;;4897735;29;20517;-69